Terminal Aerodrome Forecast
Issued by NWS

Home | Current Version | Previous Version | Text Only | Print | Product List | Glossary On
Versions: 1 2 3 4 5 6 7 8 9 10 11 12 13 14 15 16 17 18 19
857
FTUS43 KICT 240520
TAFCNU
TAF
KCNU 240520Z 2406/2506 16010KT P6SM BKN200
     FM241500 20015G24KT P6SM BKN150
     FM241800 20017G24KT P6SM SCT050
     FM250100 18010KT P6SM SCT050=

USA.gov is the U.S. government's official web portal to all federal, state and local government web resources and services.